createdAt,value
2024-02-27T00:03:34.002Z,51.53
2024-02-27T00:18:36.141Z,60.33
2024-02-27T00:33:38.345Z,74.60
2024-02-27T00:48:40.568Z,53.83
2024-02-27T01:03:42.610Z,51.43
2024-02-27T01:18:44.885Z,63.03
2024-02-27T01:33:48.241Z,52.93
2024-02-27T01:48:52.422Z,56.43
2024-02-27T02:03:55.330Z,52.87
2024-02-27T02:18:58.048Z,47.90
2024-02-27T02:34:00.348Z,43.20
2024-02-27T02:49:02.826Z,75.43
2024-02-27T03:04:04.946Z,49.03
2024-02-27T03:19:07.124Z,53.27
2024-02-27T03:34:09.583Z,49.50
2024-02-27T03:49:11.813Z,47.87
2024-02-27T04:04:13.857Z,51.27
2024-02-27T04:19:15.916Z,40.50
2024-02-27T04:34:18.060Z,42.57
2024-02-27T04:49:20.277Z,42.67
2024-02-27T05:04:22.621Z,44.77
2024-02-27T05:19:24.909Z,44.80
2024-02-27T05:34:27.079Z,49.73
2024-02-27T05:49:29.156Z,43.37
2024-02-27T06:04:31.271Z,45.90
2024-02-27T06:19:33.421Z,48.43
2024-02-27T06:34:36.324Z,42.43
2024-02-27T06:49:38.613Z,44.90
2024-02-27T07:04:40.766Z,44.97
2024-02-27T07:19:46.514Z,51.00
2024-02-27T07:34:48.807Z,52.50
2024-02-27T07:49:55.429Z,51.20
2024-02-27T08:04:57.655Z,44.97
2024-02-27T08:19:59.861Z,40.43
2024-02-27T08:35:02.007Z,38.30
2024-02-27T08:50:08.383Z,40.30
2024-02-27T09:05:10.692Z,38.27
2024-02-27T09:20:13.074Z,35.97
2024-02-27T09:35:15.190Z,34.58
2024-02-27T09:50:21.258Z,30.88
2024-02-27T10:05:23.890Z,31.10
2024-02-27T10:20:30.450Z,28.33
2024-02-27T10:35:34.039Z,29.85
2024-02-27T10:50:36.921Z,27.52
2024-02-27T11:05:40.023Z,27.10
2024-02-27T11:20:43.070Z,28.15
2024-02-27T11:35:45.242Z,26.38
2024-02-27T11:50:48.422Z,19.75
2024-02-27T12:05:53.256Z,17.92
2024-02-27T12:21:02.132Z,16.27
2024-02-27T12:36:04.627Z,17.10
2024-02-27T12:51:06.867Z,15.90
2024-02-27T13:06:09.154Z,16.23
2024-02-27T13:21:11.670Z,13.52
2024-02-27T13:36:13.855Z,14.82
2024-02-27T13:51:17.218Z,14.80
2024-02-27T14:06:19.420Z,15.30
2024-02-27T14:21:21.634Z,14.52
2024-02-27T14:36:23.966Z,14.18
2024-02-27T14:51:29.681Z,13.32
2024-02-27T15:21:34.118Z,24.75
2024-02-27T15:36:37.778Z,33.25
2024-02-27T15:51:47.537Z,21.25
2024-02-27T16:07:11.018Z,18.42
2024-02-27T16:22:13.106Z,17.60
2024-02-27T16:37:15.277Z,24.85
2024-02-27T16:52:17.333Z,32.83
2024-02-27T17:07:21.053Z,25.02
2024-02-27T17:22:23.407Z,22.02
2024-02-27T17:37:25.650Z,29.37
2024-02-27T17:52:30.542Z,28.87
2024-02-27T18:07:32.942Z,55.37
2024-02-27T18:22:35.157Z,42.07
2024-02-27T18:37:37.381Z,38.60
2024-02-27T18:52:39.533Z,44.80
2024-02-27T19:07:42.275Z,35.93
2024-02-27T19:22:44.685Z,27.70
2024-02-27T19:37:48.060Z,25.87
2024-02-27T19:52:50.150Z,23.73
2024-02-27T20:07:55.243Z,31.77
2024-02-27T20:22:57.395Z,42.53
2024-02-27T20:37:59.349Z,40.63
2024-02-27T20:53:01.478Z,47.90
2024-02-27T21:08:04.065Z,49.87
2024-02-27T21:23:06.204Z,51.00
2024-02-27T21:38:08.292Z,51.60
2024-02-27T21:53:10.580Z,39.17
2024-02-27T22:08:12.649Z,39.60
2024-02-27T22:23:14.775Z,39.00
2024-02-27T22:38:17.104Z,50.53
2024-02-27T22:53:19.617Z,59.13
2024-02-27T23:08:21.602Z,52.87
2024-02-27T23:23:23.684Z,56.67
2024-02-27T23:38:25.675Z,53.87
2024-02-27T23:53:27.704Z,45.63
